Time;durP1;ratioP1;P1;durP2;ratioP2;P2;SDS_P1;SDS_P2;PMS_P1;PMS_P2;Temp;Humidity;BMP_temperature;BMP_pressure;BME280_temperature;BME280_humidity;BME280_pressure;Samples;Min_cycle;Max_cycle;Signal;HPM_P1;HPM_P2
2021/05/15 00:03:32;;;;;;;1.47;1.37;;;13.70;90.00;;;;;;10414800;28;20229;-78
2021/05/15 00:08:34;;;;;;;2.13;1.43;;;13.70;90.30;;;;;;10416816;28;20332;-78
2021/05/15 00:13:36;;;;;;;1.13;1.13;;;13.70;90.40;;;;;;10418476;28;20214;-78
2021/05/15 00:18:39;;;;;;;1.50;1.40;;;13.70;90.10;;;;;;10416760;28;20297;-78
2021/05/15 00:23:41;;;;;;;1.83;1.70;;;13.70;89.50;;;;;;10416501;28;20225;-78
2021/05/15 00:28:43;;;;;;;1.50;1.40;;;13.60;90.00;;;;;;10410233;28;20197;-77
2021/05/15 00:33:44;;;;;;;1.37;1.27;;;13.50;90.30;;;;;;10412824;28;20650;-78
2021/05/15 00:38:47;;;;;;;1.90;1.70;;;13.50;89.70;;;;;;10413125;28;20205;-77
2021/05/15 00:43:58;;;;;;;1.20;1.10;;;13.50;89.90;;;;;;10413008;28;20229;-78
2021/05/15 00:49:00;;;;;;;1.60;1.30;;;13.40;90.70;;;;;;10414210;28;20284;-78
2021/05/15 00:54:04;;;;;;;1.20;1.20;;;13.40;90.00;;;;;;10414950;28;20746;-78
2021/05/15 00:59:06;;;;;;;1.87;1.27;;;13.40;89.40;;;;;;10404537;28;20293;-77
2021/05/15 01:04:08;;;;;;;1.07;1.07;;;13.30;90.20;;;;;;10391597;28;20227;-77
2021/05/15 01:09:11;;;;;;;1.40;1.30;;;13.30;89.90;;;;;;10412474;28;20289;-77
2021/05/15 01:14:13;;;;;;;1.30;1.10;;;13.20;90.00;;;;;;10413538;28;20205;-77
2021/05/15 01:19:15;;;;;;;1.73;1.10;;;13.20;90.30;;;;;;10411751;28;20236;-77
2021/05/15 01:24:18;;;;;;;1.50;1.40;;;13.10;89.20;;;;;;10411995;28;20209;-77
2021/05/15 01:29:19;;;;;;;1.57;1.47;;;13.10;90.20;;;;;;10413425;28;20206;-77
2021/05/15 01:34:24;;;;;;;1.37;1.27;;;13.10;89.60;;;;;;10414654;28;20189;-78
2021/05/15 01:39:26;;;;;;;1.43;1.33;;;13.00;90.20;;;;;;10412729;28;20253;-77
2021/05/15 01:44:32;;;;;;;1.57;1.30;;;13.00;90.30;;;;;;10413709;28;20229;-78
2021/05/15 01:49:41;;;;;;;1.23;1.20;;;12.90;90.20;;;;;;10412954;28;20225;-78
2021/05/15 01:54:51;;;;;;;1.70;1.33;;;12.90;91.10;;;;;;10403942;28;20204;-78
2021/05/15 01:59:53;;;;;;;1.20;1.17;;;12.90;90.60;;;;;;10427970;28;20334;-77
2021/05/15 02:04:55;;;;;;;1.20;1.10;;;12.90;91.00;;;;;;10427640;28;20245;-78
2021/05/15 02:09:57;;;;;;;1.27;1.17;;;12.90;90.60;;;;;;10428390;28;20221;-78
2021/05/15 02:14:59;;;;;;;1.27;1.10;;;12.80;90.50;;;;;;10426747;28;20228;-78
2021/05/15 02:20:00;;;;;;;1.20;1.10;;;12.80;90.70;;;;;;10427744;28;20249;-78
2021/05/15 02:25:04;;;;;;;0.97;0.97;;;12.80;90.00;;;;;;10409827;28;20214;-78
2021/05/15 02:30:07;;;;;;;1.60;1.50;;;12.80;91.00;;;;;;10427781;28;20217;-78
2021/05/15 02:35:09;;;;;;;1.40;1.30;;;12.80;91.20;;;;;;10424452;28;20217;-77
2021/05/15 02:40:12;;;;;;;1.53;1.43;;;12.80;90.60;;;;;;10423831;28;20217;-77
2021/05/15 02:45:14;;;;;;;1.63;1.43;;;12.80;91.00;;;;;;10407662;28;20240;-77
2021/05/15 02:50:17;;;;;;;1.33;1.33;;;12.80;91.20;;;;;;10423380;28;20283;-77
2021/05/15 02:55:21;;;;;;;1.47;1.37;;;12.80;91.10;;;;;;10423723;28;20202;-77
2021/05/15 03:00:25;;;;;;;1.43;1.40;;;12.70;90.80;;;;;;10424364;28;20240;-77
2021/05/15 03:05:28;;;;;;;1.60;1.50;;;12.70;91.10;;;;;;10415731;28;20267;-77
2021/05/15 03:10:30;;;;;;;1.33;1.23;;;12.60;90.70;;;;;;10416912;28;20706;-78
2021/05/15 03:15:32;;;;;;;1.33;1.23;;;12.50;91.00;;;;;;10417646;28;20198;-77
2021/05/15 03:20:34;;;;;;;3.17;1.70;;;12.40;91.10;;;;;;10417976;28;20305;-78
2021/05/15 03:25:37;;;;;;;1.10;1.10;;;12.30;90.90;;;;;;10417818;28;20222;-77
2021/05/15 03:30:38;;;;;;;1.73;1.63;;;12.30;91.00;;;;;;10420949;28;20285;-77
2021/05/15 03:35:40;;;;;;;1.70;1.60;;;12.20;91.30;;;;;;10419228;28;20228;-78
2021/05/15 03:40:42;;;;;;;1.50;1.40;;;12.10;91.70;;;;;;10418964;28;20275;-77
2021/05/15 03:45:44;;;;;;;1.60;1.50;;;12.10;91.60;;;;;;10418461;28;20705;-78
2021/05/15 03:50:46;;;;;;;1.50;1.40;;;12.10;91.60;;;;;;10466117;22;20232;-76
2021/05/15 03:55:49;;;;;;;1.50;1.40;;;12.00;91.60;;;;;;10479838;28;20234;-76
2021/05/15 04:00:50;;;;;;;1.33;1.23;;;12.10;91.80;;;;;;10497028;28;20259;-76
2021/05/15 04:05:52;;;;;;;1.40;1.40;;;12.10;91.90;;;;;;10478681;28;20307;-76
2021/05/15 04:10:54;;;;;;;1.57;1.47;;;12.10;92.10;;;;;;10479645;28;20220;-76
2021/05/15 04:15:58;;;;;;;1.20;1.20;;;12.10;92.50;;;;;;10478768;28;20204;-76
2021/05/15 04:21:00;;;;;;;3.40;1.70;;;12.20;92.30;;;;;;10496699;28;20231;-76
2021/05/15 04:26:02;;;;;;;1.73;1.63;;;12.30;92.20;;;;;;10478159;28;20303;-76
2021/05/15 04:31:05;;;;;;;1.60;1.50;;;12.50;92.70;;;;;;10478026;28;20263;-76
2021/05/15 04:36:06;;;;;;;1.50;1.40;;;12.60;92.70;;;;;;10495884;28;20196;-76
2021/05/15 04:41:09;;;;;;;1.60;1.50;;;12.70;91.80;;;;;;10495712;28;20779;-76
2021/05/15 04:46:10;;;;;;;1.60;1.50;;;12.80;91.80;;;;;;10495163;28;20265;-77
2021/05/15 04:51:12;;;;;;;1.77;1.30;;;12.90;91.50;;;;;;10494948;28;20708;-77
2021/05/15 04:56:15;;;;;;;1.50;1.40;;;13.00;90.70;;;;;;10477063;28;20222;-76
2021/05/15 05:01:17;;;;;;;1.57;1.47;;;12.90;91.70;;;;;;10476871;28;20216;-76
2021/05/15 05:06:19;;;;;;;1.30;1.20;;;12.90;91.20;;;;;;10494346;28;20220;-76
2021/05/15 05:11:21;;;;;;;2.90;2.70;;;13.00;90.90;;;;;;10494831;28;20216;-76
2021/05/15 05:16:23;;;;;;;1.60;1.50;;;13.10;91.10;;;;;;10494148;28;20200;-76
2021/05/15 05:21:24;;;;;;;1.47;1.20;;;13.30;90.80;;;;;;10477000;28;20314;-76
2021/05/15 05:26:27;;;;;;;2.40;1.50;;;13.50;90.70;;;;;;10475841;28;20674;-76
2021/05/15 05:31:29;;;;;;;1.70;1.23;;;13.70;90.90;;;;;;10493565;28;20569;-76
2021/05/15 05:36:30;;;;;;;1.47;1.37;;;13.90;90.10;;;;;;10475848;28;20242;-76
2021/05/15 05:41:33;;;;;;;2.40;1.57;;;13.90;89.20;;;;;;10493623;28;20216;-76
2021/05/15 05:46:34;;;;;;;1.53;1.43;;;14.10;89.00;;;;;;10493403;28;20562;-76
2021/05/15 05:51:36;;;;;;;2.73;1.30;;;14.10;88.50;;;;;;10493945;28;20235;-76
2021/05/15 05:56:39;;;;;;;1.40;1.30;;;14.10;88.70;;;;;;10493560;28;20287;-76
2021/05/15 06:01:41;;;;;;;1.10;1.10;;;14.20;89.90;;;;;;10475102;28;20343;-76
2021/05/15 06:06:42;;;;;;;1.10;1.10;;;14.30;89.30;;;;;;10493168;28;20721;-76
2021/05/15 06:11:45;;;;;;;1.10;1.10;;;14.40;88.50;;;;;;10475566;28;20219;-76
2021/05/15 06:16:46;;;;;;;1.27;1.20;;;14.40;86.80;;;;;;10492878;28;20631;-76
2021/05/15 06:21:48;;;;;;;1.20;1.20;;;14.30;86.80;;;;;;10493073;28;20216;-76
2021/05/15 06:26:50;;;;;;;1.17;1.10;;;14.10;89.10;;;;;;10493084;28;20220;-76
2021/05/15 06:31:52;;;;;;;1.33;1.10;;;14.10;89.80;;;;;;10492892;28;20330;-76
2021/05/15 06:36:53;;;;;;;1.13;1.00;;;14.10;90.10;;;;;;10492735;28;20613;-76
2021/05/15 06:41:56;;;;;;;1.30;1.20;;;14.30;87.80;;;;;;10477501;28;20315;-76
2021/05/15 06:46:58;;;;;;;1.10;1.10;;;14.40;88.60;;;;;;10500185;28;20793;-76
2021/05/15 06:51:59;;;;;;;1.07;1.07;;;14.70;87.50;;;;;;10482141;28;20313;-76
2021/05/15 06:57:02;;;;;;;1.30;1.20;;;15.20;86.10;;;;;;10499614;28;20611;-76
2021/05/15 07:02:04;;;;;;;1.10;1.10;;;15.60;87.70;;;;;;10499410;28;20224;-76
2021/05/15 07:07:05;;;;;;;1.40;1.30;;;16.20;85.20;;;;;;10498908;28;20250;-76
2021/05/15 07:12:08;;;;;;;1.37;1.00;;;16.50;82.40;;;;;;10500007;28;20216;-76
2021/05/15 07:17:10;;;;;;;1.07;1.07;;;16.50;82.50;;;;;;10480807;28;20211;-76
2021/05/15 07:22:11;;;;;;;3.03;1.23;;;16.80;80.70;;;;;;10498968;28;20369;-76
2021/05/15 07:27:14;;;;;;;1.30;1.20;;;17.00;79.70;;;;;;10498436;28;20220;-76
2021/05/15 07:32:15;;;;;;;1.20;1.10;;;17.10;78.40;;;;;;10498708;28;20220;-76
2021/05/15 07:37:17;;;;;;;1.33;1.33;;;17.00;79.40;;;;;;10498003;28;20656;-76
2021/05/15 07:42:20;;;;;;;1.40;1.23;;;16.80;78.70;;;;;;10498545;28;20213;-76
2021/05/15 07:47:21;;;;;;;1.70;1.37;;;16.80;80.00;;;;;;10498452;28;20688;-76
2021/05/15 07:52:26;;;;;;;3.50;1.13;;;17.00;79.60;;;;;;10497163;28;20302;-76
2021/05/15 07:57:29;;;;;;;1.50;1.40;;;17.30;78.40;;;;;;10497400;28;20258;-76
2021/05/15 08:02:32;;;;;;;1.20;1.10;;;17.60;78.40;;;;;;10479179;28;20228;-77
2021/05/15 08:07:33;;;;;;;1.47;1.40;;;17.90;77.50;;;;;;10479104;28;20212;-77
2021/05/15 08:12:36;;;;;;;1.33;1.23;;;17.90;76.70;;;;;;10497427;28;20458;-77
2021/05/15 08:17:38;;;;;;;1.37;0.77;;;17.70;73.70;;;;;;10478451;28;20188;-76
2021/05/15 08:22:40;;;;;;;2.13;1.30;;;17.50;75.70;;;;;;10496905;28;20239;-76
2021/05/15 08:27:43;;;;;;;1.63;1.53;;;17.40;75.20;;;;;;10496146;28;20248;-76
2021/05/15 08:32:45;;;;;;;2.40;1.20;;;17.20;75.30;;;;;;10478546;28;20311;-76
2021/05/15 08:37:47;;;;;;;1.40;1.30;;;17.10;76.60;;;;;;10498112;28;20227;-76
2021/05/15 08:42:53;;;;;;;1.20;1.10;;;17.10;75.80;;;;;;10496695;28;20220;-76
2021/05/15 08:47:56;;;;;;;1.20;1.10;;;17.10;77.50;;;;;;10496422;28;20691;-77
2021/05/15 08:52:59;;;;;;;1.67;1.23;;;17.20;77.00;;;;;;10477345;28;20720;-77
2021/05/15 08:58:03;;;;;;;3.30;1.57;;;17.10;75.40;;;;;;10495376;28;20200;-76
2021/05/15 09:03:07;;;;;;;1.30;1.30;;;17.20;75.90;;;;;;10493963;28;20243;-76
2021/05/15 09:08:10;;;;;;;2.03;1.30;;;17.20;75.10;;;;;;10494950;28;20303;-77
2021/05/15 09:13:15;;;;;;;1.87;1.33;;;17.40;75.90;;;;;;10476937;28;20700;-76
2021/05/15 09:18:18;;;;;;;2.50;1.83;;;17.60;75.90;;;;;;10494460;28;20214;-77
2021/05/15 09:23:21;;;;;;;2.20;1.50;;;17.70;74.40;;;;;;10476711;28;20270;-76
2021/05/15 09:28:39;;;;;;;1.17;1.07;;;17.70;74.30;;;;;;10494029;28;20254;-76
2021/05/15 09:33:46;;;;;;;1.60;1.50;;;17.90;74.90;;;;;;10477311;28;20216;-77
2021/05/15 09:38:59;;;;;;;1.20;1.10;;;18.20;74.60;;;;;;10509828;28;20196;-77
2021/05/15 09:44:02;;;;;;;1.43;1.33;;;19.00;74.00;;;;;;10510052;28;20354;-77
2021/05/15 09:49:05;;;;;;;1.50;1.40;;;19.60;72.50;;;;;;10493530;28;20679;-77
2021/05/15 09:54:15;;;;;;;1.23;1.23;;;19.80;70.70;;;;;;10494284;28;20721;-78
2021/05/15 09:59:26;;;;;;;1.67;1.57;;;19.90;70.00;;;;;;10493369;28;20559;-77
2021/05/15 10:04:28;;;;;;;1.43;1.33;;;19.80;68.90;;;;;;10493986;28;20258;-77
2021/05/15 10:09:33;;;;;;;1.67;1.57;;;19.40;68.90;;;;;;10502622;28;20599;-77
2021/05/15 10:14:35;;;;;;;1.60;1.50;;;19.20;68.60;;;;;;10508327;28;20212;-77
2021/05/15 10:19:37;;;;;;;3.43;1.53;;;18.90;69.40;;;;;;10510843;28;20204;-77
2021/05/15 10:24:43;;;;;;;1.40;1.30;;;18.80;70.40;;;;;;10498673;28;20226;-77
2021/05/15 10:29:48;;;;;;;1.17;1.17;;;19.00;68.90;;;;;;10485289;28;20330;-77
2021/05/15 10:34:58;;;;;;;1.50;1.40;;;18.90;68.40;;;;;;10518165;28;20252;-77
2021/05/15 10:40:12;;;;;;;1.80;1.30;;;18.60;68.20;;;;;;10514066;28;20333;-77
2021/05/15 10:45:15;;;;;;;2.00;1.40;;;18.70;71.10;;;;;;10510392;28;20394;-77
2021/05/15 10:50:17;;;;;;;1.73;1.63;;;18.90;69.00;;;;;;10506807;28;20228;-77
2021/05/15 10:55:30;;;;;;;1.40;1.30;;;19.00;69.70;;;;;;10497164;28;20188;-77
2021/05/15 11:00:33;;;;;;;1.43;1.33;;;19.10;65.90;;;;;;10468601;28;20298;-77
2021/05/15 11:05:42;;;;;;;1.63;1.40;;;18.80;67.60;;;;;;10499030;28;20224;-77
2021/05/15 11:10:43;;;;;;;1.60;1.50;;;18.50;66.40;;;;;;10495341;28;20601;-77
2021/05/15 11:15:46;;;;;;;2.70;1.30;;;18.40;66.50;;;;;;10498071;28;20564;-77
2021/05/15 11:20:48;;;;;;;1.93;1.70;;;18.30;67.50;;;;;;10501253;28;20220;-77
2021/05/15 11:25:54;;;;;;;2.97;1.30;;;18.10;69.30;;;;;;10519571;28;20246;-77
2021/05/15 11:30:57;;;;;;;1.17;1.10;;;18.10;67.10;;;;;;10511628;28;20265;-77
2021/05/15 11:35:59;;;;;;;1.30;1.30;;;18.20;66.60;;;;;;10512538;28;20575;-77
2021/05/15 11:41:03;;;;;;;3.33;1.70;;;18.30;67.30;;;;;;10481210;28;20226;-77
2021/05/15 11:46:07;;;;;;;1.50;1.40;;;18.30;64.00;;;;;;10495327;28;20228;-77
2021/05/15 11:51:10;;;;;;;1.87;1.40;;;18.50;65.60;;;;;;10497555;28;20613;-77
2021/05/15 11:56:13;;;;;;;4.80;1.70;;;18.70;62.70;;;;;;10497053;28;20719;-77
2021/05/15 12:01:19;;;;;;;1.40;1.30;;;19.00;62.10;;;;;;10497815;28;20236;-77
2021/05/15 12:06:21;;;;;;;1.50;1.40;;;19.20;62.10;;;;;;10497041;28;20583;-77
2021/05/15 12:11:25;;;;;;;1.40;1.30;;;19.30;60.40;;;;;;10479958;28;20849;-77
2021/05/15 12:16:28;;;;;;;1.70;1.60;;;19.20;60.80;;;;;;10498352;28;20200;-77
2021/05/15 12:21:30;;;;;;;2.33;1.47;;;19.20;61.10;;;;;;10497029;28;20423;-77
2021/05/15 12:26:32;;;;;;;1.93;1.27;;;19.20;62.20;;;;;;10496708;28;20266;-77
2021/05/15 12:31:35;;;;;;;1.30;1.20;;;19.30;60.80;;;;;;10478920;28;20224;-77
2021/05/15 12:36:39;;;;;;;1.37;1.27;;;19.40;60.80;;;;;;10478696;28;20201;-77
2021/05/15 12:41:42;;;;;;;1.53;1.40;;;19.50;60.70;;;;;;10495849;28;20251;-77
2021/05/15 12:46:46;;;;;;;1.43;1.10;;;19.60;62.40;;;;;;10496118;28;20227;-77
2021/05/15 12:51:50;;;;;;;2.10;1.13;;;19.70;62.10;;;;;;10496743;28;20231;-77
2021/05/15 12:56:54;;;;;;;1.70;1.60;;;19.70;60.00;;;;;;10476578;28;20200;-77
2021/05/15 13:02:10;;;;;;;1.50;1.40;;;19.70;60.00;;;;;;10491835;28;20224;-77
2021/05/15 13:07:23;;;;;;;1.83;1.17;;;19.70;61.00;;;;;;10473435;28;20216;-77
2021/05/15 13:12:25;;;;;;;2.60;1.40;;;19.70;60.90;;;;;;10494667;28;20216;-77
2021/05/15 13:17:27;;;;;;;2.87;1.20;;;19.60;60.30;;;;;;10475895;28;20204;-77
2021/05/15 13:22:29;;;;;;;1.73;0.90;;;19.40;61.40;;;;;;10477058;28;20315;-77
2021/05/15 13:27:30;;;;;;;1.60;1.50;;;19.30;59.10;;;;;;10493968;28;20614;-77
2021/05/15 13:32:33;;;;;;;1.40;1.30;;;19.20;60.00;;;;;;10476356;28;20225;-77
2021/05/15 13:37:34;;;;;;;4.03;1.57;;;19.10;59.70;;;;;;10475964;28;20333;-77
2021/05/15 13:42:36;;;;;;;2.30;1.47;;;19.10;59.20;;;;;;10475802;28;20303;-77
2021/05/15 13:47:38;;;;;;;2.53;2.17;;;19.00;59.00;;;;;;10493467;28;20227;-77
2021/05/15 13:52:40;;;;;;;4.50;1.17;;;18.80;59.70;;;;;;10493281;28;20230;-77
2021/05/15 13:57:42;;;;;;;2.13;1.33;;;18.60;60.90;;;;;;10493380;28;20242;-77
2021/05/15 14:02:44;;;;;;;1.40;1.30;;;18.60;61.10;;;;;;10493571;28;20216;-77
2021/05/15 14:07:46;;;;;;;1.80;1.50;;;18.70;61.20;;;;;;10474677;28;20236;-77
2021/05/15 14:12:48;;;;;;;1.97;1.30;;;18.90;61.60;;;;;;10494045;28;20299;-77
2021/05/15 14:17:50;;;;;;;1.43;1.13;;;18.80;62.00;;;;;;10492800;28;20197;-77
2021/05/15 14:22:52;;;;;;;1.33;1.03;;;18.90;61.90;;;;;;10493304;28;20700;-77
2021/05/15 14:27:53;;;;;;;1.60;1.50;;;18.80;64.00;;;;;;10492697;28;20228;-77
2021/05/15 14:32:56;;;;;;;1.50;1.40;;;18.90;61.80;;;;;;10492643;28;20312;-77
2021/05/15 14:37:58;;;;;;;4.60;1.60;;;19.10;63.60;;;;;;10492951;28;20207;-77
2021/05/15 14:42:59;;;;;;;1.57;1.47;;;19.10;60.90;;;;;;10474968;28;20711;-77
2021/05/15 14:48:02;;;;;;;1.60;1.17;;;19.00;59.80;;;;;;10486772;28;20251;-77
2021/05/15 14:53:05;;;;;;;1.73;1.03;;;19.00;60.40;;;;;;10492022;28;20604;-77
2021/05/15 14:58:07;;;;;;;1.30;1.20;;;18.80;61.20;;;;;;10473686;28;20560;-77
2021/05/15 15:03:09;;;;;;;1.30;1.20;;;18.60;60.90;;;;;;10477737;28;20220;-77
2021/05/15 15:08:11;;;;;;;3.70;1.57;;;18.40;63.30;;;;;;10481134;28;20225;-77
2021/05/15 15:13:13;;;;;;;2.13;1.10;;;18.20;61.50;;;;;;10481819;28;20289;-77
2021/05/15 15:18:15;;;;;;;1.47;1.37;;;18.10;62.70;;;;;;10498741;28;20615;-76
2021/05/15 15:23:18;;;;;;;2.87;1.30;;;17.90;64.40;;;;;;10500211;28;20212;-77
2021/05/15 15:28:21;;;;;;;1.33;1.23;;;17.80;65.20;;;;;;10498530;28;20225;-77
2021/05/15 15:33:24;;;;;;;4.27;1.50;;;17.70;64.40;;;;;;10464313;28;20228;-77
2021/05/15 15:38:25;;;;;;;1.70;1.23;;;17.50;65.80;;;;;;10498512;28;20254;-76
2021/05/15 15:43:27;;;;;;;1.87;1.30;;;17.50;66.60;;;;;;10498236;28;20790;-77
2021/05/15 15:48:30;;;;;;;1.50;1.40;;;17.50;74.80;;;;;;10481663;28;20224;-77
2021/05/15 15:53:32;;;;;;;2.10;1.90;;;17.20;84.00;;;;;;10492258;22;20225;-84
2021/05/15 15:58:33;;;;;;;1.83;1.60;;;16.60;88.90;;;;;;10472863;28;20197;-84
2021/05/15 16:03:38;;;;;;;1.93;1.50;;;16.00;90.60;;;;;;10439713;28;20276;-84
2021/05/15 16:08:40;;;;;;;2.13;1.70;;;15.60;92.30;;;;;;10428689;28;20218;-84
2021/05/15 16:13:41;;;;;;;1.70;1.60;;;15.40;91.60;;;;;;10430266;28;20312;-85
2021/05/15 16:18:44;;;;;;;2.37;1.67;;;15.20;92.30;;;;;;10426650;28;20611;-82
2021/05/15 16:23:45;;;;;;;2.53;1.57;;;15.10;92.30;;;;;;10424692;28;20222;-85
2021/05/15 16:28:47;;;;;;;1.70;1.40;;;15.10;93.20;;;;;;10404134;28;20230;-83
2021/05/15 16:33:50;;;;;;;2.80;1.57;;;15.10;92.00;;;;;;10405308;28;20248;-84
2021/05/15 16:38:51;;;;;;;1.50;1.40;;;15.20;92.90;;;;;;10426212;28;20209;-83
2021/05/15 16:43:57;;;;;;;1.60;1.50;;;15.30;92.30;;;;;;10424297;28;20278;-83
2021/05/15 16:49:00;;;;;;;1.67;1.53;;;15.10;93.40;;;;;;10409938;28;20229;-83
2021/05/15 16:54:03;;;;;;;1.60;1.50;;;15.00;94.10;;;;;;10392122;28;20229;-84
2021/05/15 16:59:04;;;;;;;1.50;1.40;;;15.00;93.90;;;;;;10426367;28;20230;-83
2021/05/15 17:04:08;;;;;;;1.67;1.37;;;15.00;92.70;;;;;;10428252;28;20226;-82
2021/05/15 17:09:11;;;;;;;2.40;1.30;;;15.00;92.90;;;;;;10409092;28;20285;-82
2021/05/15 17:14:17;;;;;;;2.00;1.90;;;15.00;92.20;;;;;;10434615;28;20701;-82
2021/05/15 17:19:20;;;;;;;1.73;1.33;;;15.00;92.00;;;;;;10411428;28;20292;-84
2021/05/15 17:24:22;;;;;;;1.63;1.30;;;15.00;90.90;;;;;;10403509;28;20225;-82
2021/05/15 17:29:24;;;;;;;1.40;1.30;;;14.90;91.60;;;;;;10420467;28;20622;-82
2021/05/15 17:34:28;;;;;;;1.87;1.17;;;15.00;90.90;;;;;;10424770;28;20213;-83
2021/05/15 17:39:29;;;;;;;1.20;1.20;;;15.00;91.00;;;;;;10399308;28;20202;-82
2021/05/15 17:44:32;;;;;;;1.40;1.30;;;14.90;91.40;;;;;;10421941;28;20213;-83
2021/05/15 17:49:34;;;;;;;1.20;1.10;;;14.90;90.00;;;;;;10438589;28;20672;-82
2021/05/15 17:54:36;;;;;;;1.53;1.43;;;14.80;90.60;;;;;;10418638;28;20341;-82
2021/05/15 17:59:37;;;;;;;2.07;1.27;;;14.70;90.20;;;;;;10415416;28;20202;-82
2021/05/15 18:04:41;;;;;;;1.30;1.20;;;14.70;90.50;;;;;;10405850;28;20217;-82
2021/05/15 18:09:43;;;;;;;1.60;1.10;;;14.70;89.50;;;;;;10408971;28;20288;-83
2021/05/15 18:14:45;;;;;;;1.40;1.30;;;14.60;88.70;;;;;;10395034;28;20198;-83
2021/05/15 18:19:47;;;;;;;1.47;1.37;;;14.50;90.10;;;;;;10400265;28;20289;-82
2021/05/15 18:24:50;;;;;;;1.30;1.20;;;14.50;90.20;;;;;;10390752;28;20452;-82
2021/05/15 18:29:53;;;;;;;1.20;1.10;;;14.50;90.30;;;;;;10411587;28;20323;-82
2021/05/15 18:34:56;;;;;;;2.60;1.33;;;14.50;89.20;;;;;;10422218;28;20194;-86
2021/05/15 18:39:58;;;;;;;1.17;1.07;;;14.40;89.60;;;;;;10419098;28;20681;-83
2021/05/15 18:45:01;;;;;;;1.00;0.90;;;14.40;88.40;;;;;;10416572;28;20206;-84
2021/05/15 18:50:06;;;;;;;1.20;1.10;;;14.30;89.80;;;;;;10419119;28;20238;-83
2021/05/15 18:55:10;;;;;;;0.77;0.77;;;14.20;90.10;;;;;;10398673;28;20194;-83
2021/05/15 19:00:15;;;;;;;1.43;1.33;;;14.20;90.20;;;;;;10415462;28;20278;-82
2021/05/15 19:05:20;;;;;;;2.30;1.23;;;14.20;89.20;;;;;;10431802;28;20214;-84
2021/05/15 19:10:21;;;;;;;2.27;2.07;;;14.20;88.70;;;;;;10410816;28;20731;-83
2021/05/15 19:15:23;;;;;;;1.30;0.90;;;14.10;88.50;;;;;;10423113;28;20201;-86
2021/05/15 19:20:27;;;;;;;2.13;1.10;;;14.00;88.60;;;;;;10423696;28;20685;-83
2021/05/15 19:25:28;;;;;;;0.80;0.80;;;13.90;88.40;;;;;;10418463;28;20220;-82
2021/05/15 19:30:30;;;;;;;1.33;0.60;;;13.90;89.10;;;;;;10430578;28;20249;-83
2021/05/15 19:35:33;;;;;;;0.80;0.70;;;13.80;88.70;;;;;;10424086;28;20198;-87
2021/05/15 19:40:34;;;;;;;2.40;1.10;;;13.80;88.50;;;;;;10417352;28;20218;-82
2021/05/15 19:45:36;;;;;;;3.00;1.00;;;13.80;88.50;;;;;;10402655;28;20234;-81
2021/05/15 19:50:42;;;;;;;1.10;1.00;;;13.80;87.70;;;;;;10402104;28;20606;-82
2021/05/15 19:55:44;;;;;;;1.37;1.27;;;13.80;88.70;;;;;;10406595;28;20229;-83
2021/05/15 20:00:46;;;;;;;1.87;1.43;;;13.80;87.90;;;;;;10407710;28;20243;-81
2021/05/15 20:05:48;;;;;;;0.83;0.83;;;13.80;87.70;;;;;;10420176;28;20212;-81
2021/05/15 20:10:50;;;;;;;1.30;1.20;;;13.70;87.70;;;;;;10417843;28;20728;-82
2021/05/15 20:15:52;;;;;;;0.90;0.90;;;13.70;87.70;;;;;;10417307;28;20204;-82
2021/05/15 20:20:55;;;;;;;1.50;1.30;;;13.70;89.00;;;;;;10400262;28;20298;-81
2021/05/15 20:25:58;;;;;;;2.60;1.23;;;13.70;88.80;;;;;;10418220;28;20241;-82
2021/05/15 20:31:00;;;;;;;1.20;1.10;;;13.60;87.70;;;;;;10417122;28;20276;-82
2021/05/15 20:36:03;;;;;;;1.83;1.30;;;13.60;88.60;;;;;;10419486;28;20193;-83
2021/05/15 20:41:04;;;;;;;1.30;1.20;;;13.50;88.90;;;;;;10401511;28;20273;-82
2021/05/15 20:46:06;;;;;;;1.33;1.23;;;13.50;90.00;;;;;;10419149;28;20686;-83
2021/05/15 20:51:10;;;;;;;3.23;1.70;;;13.50;88.70;;;;;;10401088;28;20244;-83
2021/05/15 20:56:12;;;;;;;1.93;1.20;;;13.30;88.60;;;;;;10422735;28;20222;-82
2021/05/15 21:01:13;;;;;;;1.37;1.13;;;13.30;88.90;;;;;;10416705;28;20753;-85
2021/05/15 21:06:17;;;;;;;1.40;0.90;;;13.20;89.60;;;;;;10416795;28;20245;-83
2021/05/15 21:11:18;;;;;;;1.30;1.20;;;13.10;89.20;;;;;;10417236;28;20663;-83
2021/05/15 21:16:20;;;;;;;2.23;1.50;;;13.10;89.80;;;;;;10409878;28;20228;-84
2021/05/15 21:21:22;;;;;;;1.60;1.50;;;13.00;90.10;;;;;;10415124;28;20221;-82
2021/05/15 21:26:24;;;;;;;2.07;1.40;;;12.90;89.80;;;;;;10416093;28;20595;-84
2021/05/15 21:31:26;;;;;;;1.83;1.37;;;12.80;90.00;;;;;;10412284;28;20312;-81
2021/05/15 21:36:28;;;;;;;3.10;1.80;;;12.80;90.50;;;;;;10414642;28;20198;-81
2021/05/15 21:41:30;;;;;;;1.33;1.23;;;12.80;90.50;;;;;;10430273;28;20594;-81
2021/05/15 21:46:32;;;;;;;1.43;1.13;;;12.70;90.10;;;;;;10397170;28;20729;-82
2021/05/15 21:51:34;;;;;;;2.20;1.30;;;12.70;90.30;;;;;;10417779;28;20240;-83
2021/05/15 21:56:36;;;;;;;2.80;1.70;;;12.60;90.20;;;;;;10426948;28;20194;-82
2021/05/15 22:01:38;;;;;;;2.63;1.80;;;12.50;90.90;;;;;;10426287;28;20232;-82
2021/05/15 22:06:41;;;;;;;5.17;2.87;;;12.50;90.80;;;;;;10428271;28;20218;-83
2021/05/15 22:11:42;;;;;;;2.90;2.00;;;12.50;90.70;;;;;;10433018;28;20218;-81
2021/05/15 22:16:44;;;;;;;2.33;1.93;;;12.50;90.60;;;;;;10430714;28;20256;-81
2021/05/15 22:21:47;;;;;;;2.03;1.70;;;12.50;90.40;;;;;;10432422;28;20685;-82
2021/05/15 22:26:48;;;;;;;2.60;1.53;;;12.40;90.60;;;;;;10432167;28;20214;-82
2021/05/15 22:31:50;;;;;;;3.67;2.00;;;12.30;90.70;;;;;;10431250;28;20213;-81
2021/05/15 22:36:53;;;;;;;1.80;1.43;;;12.30;91.00;;;;;;10433447;28;20572;-81
2021/05/15 22:41:54;;;;;;;2.23;1.60;;;12.30;90.80;;;;;;10433300;28;20229;-82
2021/05/15 22:46:56;;;;;;;1.57;1.40;;;12.30;91.00;;;;;;10434604;28;20225;-81
2021/05/15 22:51:58;;;;;;;2.47;1.30;;;12.30;90.80;;;;;;10429675;28;20622;-81
2021/05/15 22:57:03;;;;;;;1.67;1.53;;;12.30;90.80;;;;;;10427342;28;20198;-81
2021/05/15 23:02:04;;;;;;;1.90;1.47;;;12.30;91.00;;;;;;10429485;28;20222;-81
2021/05/15 23:07:07;;;;;;;2.27;1.50;;;12.30;90.80;;;;;;10429751;28;20252;-81
2021/05/15 23:12:09;;;;;;;1.50;1.40;;;12.30;90.70;;;;;;10422803;28;20221;-81
2021/05/15 23:17:11;;;;;;;2.07;1.60;;;12.30;91.00;;;;;;10430272;28;20190;-80
2021/05/15 23:22:14;;;;;;;1.40;1.27;;;12.40;91.00;;;;;;10427773;28;20317;-82
2021/05/15 23:27:16;;;;;;;2.40;1.50;;;12.50;90.60;;;;;;10448473;28;20240;-83
2021/05/15 23:32:18;;;;;;;2.00;1.60;;;12.50;90.40;;;;;;10450507;28;20214;-81
2021/05/15 23:37:20;;;;;;;2.40;1.50;;;12.50;90.40;;;;;;10421751;28;20213;-81
2021/05/15 23:42:22;;;;;;;3.63;1.53;;;12.50;90.30;;;;;;10420283;28;20681;-82
2021/05/15 23:47:24;;;;;;;2.60;1.20;;;12.50;90.60;;;;;;10419105;28;20284;-81
2021/05/15 23:52:26;;;;;;;1.30;1.00;;;12.50;90.30;;;;;;10427780;28;20276;-82
2021/05/15 23:57:28;;;;;;;2.40;1.37;;;12.50;90.30;;;;;;10428566;28;20194;-82
